createdAt,value
2022-12-15T00:03:15.423Z,10.96
2022-12-15T00:08:21.389Z,10.81
2022-12-15T00:13:25.028Z,10.65
2022-12-15T00:18:28.647Z,10.50
2022-12-15T00:23:34.134Z,10.47
2022-12-15T00:28:37.905Z,10.18
2022-12-15T00:33:41.519Z,10.19
2022-12-15T00:38:46.913Z,10.02
2022-12-15T00:43:50.574Z,9.85
2022-12-15T00:48:54.303Z,9.69
2022-12-15T00:54:01.727Z,9.55
2022-12-15T00:59:05.428Z,9.44
2022-12-15T01:04:09.069Z,9.36
2022-12-15T01:09:14.762Z,10.04
2022-12-15T01:14:18.392Z,10.82
2022-12-15T01:19:22.242Z,11.17
2022-12-15T01:24:27.515Z,11.39
2022-12-15T01:29:31.098Z,11.34
2022-12-15T01:34:34.704Z,11.22
2022-12-15T01:39:39.957Z,11.14
2022-12-15T01:44:45.186Z,11.15
2022-12-15T01:49:49.232Z,10.98
2022-12-15T01:54:58.397Z,10.96
2022-12-15T02:00:05.203Z,10.97
2022-12-15T02:05:10.421Z,11.06
2022-12-15T02:10:15.931Z,10.93
2022-12-15T02:15:25.668Z,10.74
2022-12-15T02:20:48.188Z,10.64
2022-12-15T02:26:26.506Z,10.51
2022-12-15T02:31:34.504Z,10.09
2022-12-15T02:36:43.846Z,10.36
2022-12-15T02:41:48.675Z,10.39
2022-12-15T02:47:11.225Z,10.38
2022-12-15T02:52:27.434Z,10.15
2022-12-15T02:57:39.264Z,10.28
2022-12-15T03:02:48.376Z,10.16
2022-12-15T03:07:53.132Z,10.10
2022-12-15T03:12:56.717Z,9.87
2022-12-15T03:18:01.955Z,9.41
2022-12-15T03:23:05.565Z,8.54
2022-12-15T03:28:09.162Z,8.24
2022-12-15T03:33:14.412Z,7.97
2022-12-15T03:38:18.447Z,7.68
2022-12-15T03:43:22.075Z,7.53
2022-12-15T03:48:27.321Z,7.43
2022-12-15T03:53:31.268Z,7.36
2022-12-15T03:58:35.238Z,7.39
2022-12-15T04:03:40.583Z,7.29
2022-12-15T04:08:44.265Z,7.21
2022-12-15T04:13:47.867Z,7.58
2022-12-15T04:18:53.123Z,8.20
2022-12-15T04:23:56.741Z,8.07
2022-12-15T04:29:00.325Z,8.07
2022-12-15T04:34:11.772Z,7.72
2022-12-15T04:39:16.099Z,7.44
2022-12-15T04:44:19.924Z,7.81
2022-12-15T04:49:25.203Z,7.37
2022-12-15T04:54:28.844Z,7.07
2022-12-15T04:59:32.468Z,7.02
2022-12-15T05:04:37.872Z,6.96
2022-12-15T05:09:41.564Z,7.22
2022-12-15T05:14:45.166Z,7.08
2022-12-15T05:19:54.864Z,6.66
2022-12-15T05:24:58.436Z,6.47
2022-12-15T05:30:02.045Z,6.50
2022-12-15T05:35:07.775Z,6.45
2022-12-15T05:40:12.144Z,6.40
2022-12-15T05:45:15.920Z,6.34
2022-12-15T05:50:21.642Z,6.32
2022-12-15T05:55:25.343Z,6.26
2022-12-15T06:00:28.936Z,6.22
2022-12-15T06:05:34.207Z,6.11
2022-12-15T06:10:37.812Z,6.07
2022-12-15T06:15:41.490Z,6.01
2022-12-15T06:20:46.813Z,5.94
2022-12-15T06:25:53.370Z,5.85
2022-12-15T06:31:02.485Z,5.85
2022-12-15T06:36:11.106Z,5.86
2022-12-15T06:41:16.348Z,5.92
2022-12-15T06:46:21.226Z,5.69
2022-12-15T06:51:27.407Z,5.77
2022-12-15T06:56:34.445Z,5.69
2022-12-15T07:01:38.812Z,5.65
2022-12-15T07:06:44.419Z,5.61
2022-12-15T07:11:48.012Z,5.56
2022-12-15T07:16:51.622Z,5.51
2022-12-15T07:21:56.895Z,5.56
2022-12-15T07:27:00.481Z,5.53
2022-12-15T07:32:04.163Z,5.61
2022-12-15T07:37:10.452Z,5.57
2022-12-15T07:42:14.063Z,5.46
2022-12-15T07:47:17.699Z,5.49
2022-12-15T07:52:22.991Z,5.46
2022-12-15T07:57:26.603Z,5.39
2022-12-15T08:02:30.449Z,5.29
2022-12-15T08:07:35.939Z,5.28
2022-12-15T08:12:39.567Z,5.36
2022-12-15T08:17:44.335Z,5.26
2022-12-15T08:22:49.604Z,5.19
2022-12-15T08:27:53.365Z,5.20
2022-12-15T08:32:57.061Z,5.18
2022-12-15T08:38:05.644Z,5.19
2022-12-15T08:43:09.607Z,5.05
2022-12-15T08:48:13.260Z,5.04
2022-12-15T08:53:33.576Z,4.95
2022-12-15T08:58:37.384Z,4.94
2022-12-15T09:03:41.005Z,4.95
2022-12-15T09:08:50.103Z,4.97
2022-12-15T09:13:54.607Z,4.80
2022-12-15T09:18:59.919Z,4.86
2022-12-15T09:24:05.738Z,4.72
2022-12-15T09:29:11.797Z,4.71
2022-12-15T09:34:16.705Z,4.79
2022-12-15T09:39:21.996Z,4.65
2022-12-15T09:44:28.460Z,4.73
2022-12-15T09:49:46.907Z,4.62
2022-12-15T09:54:52.356Z,4.62
2022-12-15T10:00:16.248Z,4.62
2022-12-15T10:05:57.719Z,4.49
2022-12-15T10:10:58.412Z,4.60
2022-12-15T10:16:06.418Z,4.51
2022-12-15T10:21:13.245Z,4.51
2022-12-15T10:26:21.543Z,4.52
2022-12-15T10:31:33.516Z,4.56
2022-12-15T10:36:37.130Z,4.62
2022-12-15T10:41:42.424Z,4.52
2022-12-15T10:46:46.677Z,4.48
2022-12-15T10:51:56.439Z,4.56
2022-12-15T10:57:15.399Z,4.55
2022-12-15T11:02:33.184Z,4.50
2022-12-15T11:07:40.188Z,4.44
2022-12-15T11:13:01.699Z,4.39
2022-12-15T11:18:12.163Z,4.46
2022-12-15T11:23:22.612Z,4.34
2022-12-15T11:28:39.630Z,4.31
2022-12-15T11:33:43.291Z,4.26
2022-12-15T11:38:51.761Z,4.24
2022-12-15T11:44:12.194Z,4.35
2022-12-15T11:49:41.624Z,4.29
2022-12-15T11:54:49.763Z,4.38
2022-12-15T12:00:06.197Z,4.41
2022-12-15T12:05:30.658Z,4.38
2022-12-15T12:10:40.916Z,4.51
2022-12-15T12:15:58.410Z,4.41
2022-12-15T12:21:07.182Z,4.34
2022-12-15T12:26:16.100Z,4.17
2022-12-15T12:31:32.625Z,4.18
2022-12-15T12:36:37.002Z,4.15
2022-12-15T12:41:48.698Z,4.12
2022-12-15T12:46:58.089Z,4.17
2022-12-15T12:52:05.843Z,4.27
2022-12-15T12:57:37.390Z,4.34
2022-12-15T13:03:09.841Z,4.29
2022-12-15T13:08:50.857Z,4.21
2022-12-15T13:13:55.464Z,4.13
2022-12-15T13:19:01.800Z,4.11
2022-12-15T13:24:23.472Z,3.97
2022-12-15T13:29:27.189Z,4.00
2022-12-15T13:34:37.227Z,3.93
2022-12-15T13:40:00.861Z,3.90
2022-12-15T13:45:48.806Z,3.86
2022-12-15T13:51:02.129Z,3.86
2022-12-15T13:56:30.656Z,3.74
2022-12-15T14:01:34.336Z,3.62
2022-12-15T14:06:42.257Z,3.62
2022-12-15T14:11:55.027Z,3.49
2022-12-15T14:17:01.891Z,3.56
2022-12-15T14:22:23.287Z,3.50
2022-12-15T14:27:33.959Z,3.59
2022-12-15T14:32:37.883Z,3.53
2022-12-15T14:37:42.074Z,3.56
2022-12-15T14:42:47.968Z,3.55
2022-12-15T14:48:30.570Z,3.50
2022-12-15T14:53:24.212Z,3.54
2022-12-15T14:58:31.343Z,3.48
2022-12-15T15:03:38.075Z,3.34
2022-12-15T15:08:46.756Z,3.33
2022-12-15T15:13:56.151Z,3.36
2022-12-15T15:19:03.497Z,3.45
2022-12-15T15:24:24.016Z,3.52
2022-12-15T15:29:39.023Z,3.50
2022-12-15T15:34:42.677Z,3.63
2022-12-15T15:39:48.248Z,3.51
2022-12-15T15:44:53.521Z,3.53
2022-12-15T15:50:00.392Z,3.67
2022-12-15T15:55:04.095Z,4.37
2022-12-15T16:00:16.890Z,4.52
2022-12-15T16:05:20.608Z,4.52
2022-12-15T16:10:24.210Z,4.51
2022-12-15T16:15:31.540Z,4.68
2022-12-15T16:20:37.292Z,4.89
2022-12-15T16:25:50.387Z,5.06
2022-12-15T16:30:56.802Z,5.22
2022-12-15T16:36:00.426Z,5.39
2022-12-15T16:41:08.160Z,5.69
2022-12-15T16:46:14.321Z,6.03
2022-12-15T16:51:27.472Z,6.26
2022-12-15T16:56:31.112Z,6.32
2022-12-15T17:01:40.057Z,6.55
2022-12-15T17:06:44.217Z,6.70
2022-12-15T17:11:47.992Z,6.96
2022-12-15T17:16:54.785Z,7.31
2022-12-15T17:21:58.420Z,7.63
2022-12-15T17:27:02.066Z,8.00
2022-12-15T17:32:13.446Z,8.37
2022-12-15T17:37:17.164Z,8.67
2022-12-15T17:42:21.973Z,9.03
2022-12-15T17:47:27.234Z,9.48
2022-12-15T17:52:31.973Z,9.98
2022-12-15T17:57:35.559Z,10.38
2022-12-15T18:02:40.961Z,10.78
2022-12-15T18:07:46.080Z,11.03
2022-12-15T18:12:49.670Z,11.12
2022-12-15T18:17:54.959Z,11.30
2022-12-15T18:22:58.672Z,11.43
2022-12-15T18:28:02.292Z,11.47
2022-12-15T18:33:11.581Z,11.68
2022-12-15T18:38:18.030Z,11.89
2022-12-15T18:43:23.194Z,12.11
2022-12-15T18:48:29.635Z,12.21
2022-12-15T18:53:35.054Z,12.38
2022-12-15T18:58:39.872Z,12.42
2022-12-15T19:03:45.166Z,12.44
2022-12-15T19:08:49.737Z,12.44
2022-12-15T19:13:53.348Z,12.52
2022-12-15T19:18:58.597Z,12.67
2022-12-15T19:24:02.342Z,12.63
2022-12-15T19:29:16.361Z,12.67
2022-12-15T19:34:21.588Z,12.87
2022-12-15T19:39:25.965Z,12.83
2022-12-15T19:44:29.565Z,13.01
2022-12-15T19:49:34.832Z,13.02
2022-12-15T19:54:38.496Z,13.08
2022-12-15T19:59:42.493Z,13.17
2022-12-15T20:04:48.468Z,13.25
2022-12-15T20:09:52.811Z,13.71
2022-12-15T20:14:56.428Z,13.43
2022-12-15T20:20:01.653Z,13.48
2022-12-15T20:25:06.088Z,13.55
2022-12-15T20:30:21.037Z,13.61
2022-12-15T20:35:26.524Z,13.77
2022-12-15T20:40:31.124Z,13.79
2022-12-15T20:45:34.823Z,13.77
2022-12-15T20:50:42.031Z,13.70
2022-12-15T20:55:46.307Z,13.79
2022-12-15T21:00:51.730Z,13.82
2022-12-15T21:05:58.995Z,13.75
2022-12-15T21:11:08.339Z,13.86
2022-12-15T21:16:16.993Z,13.88
2022-12-15T21:21:27.763Z,14.10
2022-12-15T21:26:31.345Z,14.15
2022-12-15T21:31:34.995Z,14.00
2022-12-15T21:36:42.534Z,14.04
2022-12-15T21:41:46.145Z,14.06
2022-12-15T21:46:49.801Z,13.96
2022-12-15T21:51:58.915Z,13.97
2022-12-15T21:57:02.960Z,13.90
2022-12-15T22:02:24.439Z,13.74
2022-12-15T22:07:29.813Z,13.72
2022-12-15T22:12:33.440Z,13.81
2022-12-15T22:17:37.043Z,13.74
2022-12-15T22:22:44.908Z,13.65
2022-12-15T22:27:48.687Z,13.62
2022-12-15T22:32:52.731Z,13.65
2022-12-15T22:37:59.110Z,13.48
2022-12-15T22:43:03.360Z,13.47
2022-12-15T22:48:07.856Z,13.41
2022-12-15T22:53:15.981Z,13.43
2022-12-15T22:58:26.047Z,13.37
2022-12-15T23:03:31.505Z,13.24
2022-12-15T23:08:37.038Z,13.09
2022-12-15T23:13:40.764Z,12.96
2022-12-15T23:18:44.368Z,12.75
2022-12-15T23:23:49.967Z,12.75
2022-12-15T23:28:53.363Z,12.69
2022-12-15T23:33:58.854Z,12.41
2022-12-15T23:39:04.169Z,12.09
2022-12-15T23:44:07.777Z,12.03
2022-12-15T23:49:11.980Z,11.92
2022-12-15T23:54:18.244Z,11.78
2022-12-15T23:59:22.002Z,11.64
